Time,TemperatureF,DewpointF,PressureIn,WindDirection,WindDirectionDegrees,WindSpeedMPH,WindSpeedGustMPH,Humidity,HourlyPrecipIn,Conditions,Clouds,dailyrainin,SoftwareType,DateUTC
2013-11-03 00:00:00,52.7,40.9,30.23,NNE,25,0.0,0.0,64,0.00,,SKC,0.00,VWS V14.01,2013-11-03 05:00:00,
2013-11-03 00:01:00,52.1,40.7,30.21,NNE,25,0.0,0.0,65,0.00,,SKC,0.00,VWS V14.01,2013-11-03 05:01:00,
2013-11-03 00:06:00,52.4,41.0,30.20,NNE,25,0.0,0.0,65,0.00,,SKC,0.00,VWS V14.01,2013-11-03 05:06:00,
2013-11-03 00:10:00,52.4,41.0,30.22,NNE,25,0.0,0.0,65,0.00,,SKC,0.00,VWS V14.01,2013-11-03 05:10:00,
2013-11-03 00:11:00,52.5,40.7,30.21,NNE,25,0.0,0.0,64,0.00,,SKC,0.00,VWS V14.01,2013-11-03 05:11:00,
2013-11-03 00:16:00,52.7,40.9,30.21,NNE,25,0.0,0.0,64,0.00,,SKC,0.00,VWS V14.01,2013-11-03 05:16:00,
2013-11-03 00:20:00,52.1,40.7,30.22,NNE,25,0.0,0.0,65,0.00,,SKC,0.00,VWS V14.01,2013-11-03 05:20:00,
2013-11-03 00:21:00,52.9,41.1,30.21,NNE,25,0.0,0.0,64,0.00,,SKC,0.00,VWS V14.01,2013-11-03 05:21:00,
2013-11-03 00:26:00,53.1,41.3,30.21,NNE,25,0.0,0.0,64,0.00,,SKC,0.00,VWS V14.01,2013-11-03 05:26:00,
2013-11-03 00:30:00,52.0,41.0,30.22,NNE,25,0.0,0.0,66,0.00,,SKC,0.00,VWS V14.01,2013-11-03 05:30:00,
2013-11-03 00:31:00,53.2,41.0,30.21,NNE,25,0.0,0.0,63,0.00,,SKC,0.00,VWS V14.01,2013-11-03 05:31:00,
2013-11-03 00:36:00,53.4,41.1,30.20,NNE,25,0.0,0.0,63,0.00,,SKC,0.00,VWS V14.01,2013-11-03 05:36:00,
2013-11-03 00:40:00,51.9,41.3,30.22,NNE,25,0.0,0.0,67,0.00,,SKC,0.00,VWS V14.01,2013-11-03 05:40:00,
2013-11-03 00:41:00,53.5,40.8,30.20,NNE,25,0.0,0.0,62,0.00,,SKC,0.00,VWS V14.01,2013-11-03 05:41:00,
2013-11-03 00:46:00,53.8,41.1,30.20,NNE,25,0.0,0.0,62,0.00,,SKC,0.00,VWS V14.01,2013-11-03 05:46:00,
2013-11-03 00:50:00,51.8,40.8,30.21,NNE,25,0.0,0.0,66,0.00,,SKC,0.00,VWS V14.01,2013-11-03 05:50:00,
2013-11-03 00:51:00,54.0,41.3,30.20,NNE,25,0.0,0.0,62,0.00,,SKC,0.00,VWS V14.01,2013-11-03 05:51:00,
2013-11-03 00:56:00,54.1,41.0,30.20,NNE,25,0.0,0.0,61,0.00,,SKC,0.00,VWS V14.01,2013-11-03 05:56:00,
2013-11-03 01:00:00,53.8,41.1,30.19,NNE,25,0.0,0.0,62,0.00,,SKC,0.00,VWS V14.01,2013-11-03 06:00:00,
2013-11-03 01:01:00,54.3,41.2,30.20,NNE,25,0.0,0.0,61,0.00,,SKC,0.00,VWS V14.01,2013-11-03 06:01:00,
2013-11-03 01:02:00,53.7,41.0,30.19,NNE,25,0.0,0.0,62,0.00,,SKC,0.00,VWS V14.01,2013-11-03 06:02:00,
2013-11-03 01:03:00,53.7,41.0,30.18,NNE,25,0.0,0.0,62,0.00,,SKC,0.00,VWS V14.01,2013-11-03 06:03:00,
2013-11-03 01:04:00,53.7,41.0,30.18,NNE,25,0.0,0.0,62,0.00,,SKC,0.00,VWS V14.01,2013-11-03 06:04:00,
2013-11-03 01:05:00,53.7,41.0,30.18,NNE,25,0.0,0.0,62,0.00,,SKC,0.00,VWS V14.01,2013-11-03 06:05:00,
2013-11-03 01:06:00,54.4,41.2,30.19,NNE,25,0.0,0.0,61,0.00,,SKC,0.00,VWS V14.01,2013-11-03 06:06:00,
2013-11-03 01:07:00,53.6,40.9,30.18,NNE,25,0.0,0.0,62,0.00,,SKC,0.00,VWS V14.01,2013-11-03 06:07:00,
2013-11-03 01:10:00,52.3,40.9,30.20,NNE,25,0.0,0.0,65,0.00,,SKC,0.00,VWS V14.01,2013-11-03 06:10:00,
2013-11-03 01:11:00,54.5,40.9,30.19,NNE,25,0.0,1.0,60,0.00,,SKC,0.00,VWS V14.01,2013-11-03 06:11:00,
2013-11-03 01:16:00,54.6,41.0,30.19,NNE,25,0.0,0.0,60,0.00,,SKC,0.00,VWS V14.01,2013-11-03 06:16:00,
2013-11-03 01:20:00,52.7,40.9,30.21,NNE,25,0.0,0.0,64,0.00,,SKC,0.00,VWS V14.01,2013-11-03 06:20:00,
2013-11-03 01:21:00,54.6,41.0,30.19,NNE,25,0.0,0.0,60,0.00,,SKC,0.00,VWS V14.01,2013-11-03 06:21:00,
2013-11-03 01:26:00,54.5,41.3,30.19,NNE,25,0.0,0.0,61,0.00,,SKC,0.00,VWS V14.01,2013-11-03 06:26:00,
2013-11-03 01:30:00,53.0,41.2,30.21,NNE,25,0.0,0.0,64,0.00,,SKC,0.00,VWS V14.01,2013-11-03 06:30:00,
2013-11-03 01:31:00,54.4,41.2,30.19,NNE,25,0.0,0.0,61,0.00,,SKC,0.00,VWS V14.01,2013-11-03 06:31:00,
2013-11-03 01:36:00,54.2,41.1,30.19,NNE,25,0.0,0.0,61,0.00,,SKC,0.00,VWS V14.01,2013-11-03 06:36:00,
2013-11-03 01:40:00,53.3,41.0,30.21,NNE,25,0.0,0.0,63,0.00,,SKC,0.00,VWS V14.01,2013-11-03 06:40:00,
2013-11-03 01:41:00,54.1,41.0,30.18,NNE,25,0.0,0.0,61,0.00,,SKC,0.00,VWS V14.01,2013-11-03 06:41:00,
2013-11-03 01:46:00,54.1,41.0,30.18,NNE,25,0.0,0.0,61,0.00,,SKC,0.00,VWS V14.01,2013-11-03 06:46:00,
2013-11-03 01:50:00,53.7,41.0,30.20,NNE,25,0.0,0.0,62,0.00,,SKC,0.00,VWS V14.01,2013-11-03 06:50:00,
2013-11-03 01:51:00,53.9,41.2,30.19,NNE,25,0.0,0.0,62,0.00,,SKC,0.00,VWS V14.01,2013-11-03 06:51:00,
2013-11-03 01:57:00,53.7,41.0,30.18,NNE,25,0.0,0.0,62,0.00,,SKC,0.00,VWS V14.01,2013-11-03 06:57:00,
2013-11-03 01:00:00,54.1,41.0,30.20,NNE,25,0.0,0.0,61,0.00,,SKC,0.00,VWS V14.01,2013-11-03 07:00:00,
2013-11-03 01:02:00,53.6,40.9,30.18,NNE,25,0.0,0.0,62,0.00,,SKC,0.00,VWS V14.01,2013-11-03 07:02:00,
2013-11-03 01:07:00,53.5,41.2,30.18,NNE,25,0.0,0.0,63,0.00,,SKC,0.00,VWS V14.01,2013-11-03 07:07:00,
2013-11-03 01:10:00,54.4,41.2,30.19,NNE,25,0.0,1.0,61,0.00,,SKC,0.00,VWS V14.01,2013-11-03 07:10:00,
2013-11-03 01:12:00,53.3,41.0,30.18,NNE,25,0.0,0.0,63,0.00,,SKC,0.00,VWS V14.01,2013-11-03 07:12:00,
2013-11-03 01:17:00,53.2,41.0,30.18,NNE,25,0.0,0.0,63,0.00,,SKC,0.00,VWS V14.01,2013-11-03 07:17:00,
2013-11-03 01:20:00,54.6,41.0,30.19,NNE,25,0.0,2.0,60,0.00,,SKC,0.00,VWS V14.01,2013-11-03 07:20:00,
2013-11-03 01:22:00,53.1,40.8,30.18,NNE,25,0.0,0.0,63,0.00,,SKC,0.00,VWS V14.01,2013-11-03 07:22:00,
2013-11-03 01:27:00,53.0,40.8,30.18,NNE,25,0.0,0.0,63,0.00,,SKC,0.00,VWS V14.01,2013-11-03 07:27:00,
2013-11-03 01:30:00,54.5,40.9,30.19,NNE,25,0.0,0.0,60,0.00,,SKC,0.00,VWS V14.01,2013-11-03 07:30:00,
2013-11-03 01:32:00,52.9,40.7,30.18,NNE,25,0.0,0.0,63,0.00,,SKC,0.00,VWS V14.01,2013-11-03 07:32:00,
2013-11-03 01:37:00,52.8,40.6,30.18,NNE,25,0.0,0.0,63,0.00,,SKC,0.00,VWS V14.01,2013-11-03 07:37:00,
2013-11-03 01:40:00,54.3,41.2,30.19,NNE,25,0.0,0.0,61,0.00,,SKC,0.00,VWS V14.01,2013-11-03 07:40:00,
2013-11-03 01:42:00,52.6,40.4,30.18,NNE,25,0.0,0.0,63,0.00,,SKC,0.00,VWS V14.01,2013-11-03 07:42:00,
2013-11-03 01:47:00,52.4,40.6,30.17,NNE,25,0.0,0.0,64,0.00,,SKC,0.00,VWS V14.01,2013-11-03 07:47:00,
2013-11-03 01:50:00,54.1,41.0,30.19,NNE,25,0.0,0.0,61,0.00,,SKC,0.00,VWS V14.01,2013-11-03 07:50:00,
2013-11-03 01:52:00,52.0,41.0,30.17,NNE,25,0.0,0.0,66,0.00,,SKC,0.00,VWS V14.01,2013-11-03 07:52:00,
2013-11-03 01:57:00,51.5,40.9,30.17,NNE,25,0.0,0.0,67,0.00,,SKC,0.00,VWS V14.01,2013-11-03 07:57:00,
2013-11-03 02:00:00,51.8,41.2,30.17,NNE,25,0.0,0.0,67,0.00,,SKC,0.00,VWS V14.01,2013-11-03 08:00:00,
2013-11-03 02:02:00,51.0,40.4,30.17,NNE,25,0.0,0.0,67,0.00,,SKC,0.00,VWS V14.01,2013-11-03 08:02:00,
2013-11-03 02:07:00,50.6,40.4,30.17,NNE,25,0.0,0.0,68,0.00,,SKC,0.00,VWS V14.01,2013-11-03 08:07:00,
2013-11-03 02:10:00,50.8,40.6,30.17,NNE,25,0.0,0.0,68,0.00,,SKC,0.00,VWS V14.01,2013-11-03 08:10:00,
2013-11-03 02:12:00,50.1,40.3,30.17,NNE,25,0.0,0.0,69,0.00,,SKC,0.00,VWS V14.01,2013-11-03 08:12:00,
2013-11-03 02:17:00,49.6,39.9,30.17,NNE,25,0.0,0.0,69,0.00,,SKC,0.00,VWS V14.01,2013-11-03 08:17:00,
2013-11-03 02:20:00,49.8,40.0,30.17,NNE,25,0.0,0.0,69,0.00,,SKC,0.00,VWS V14.01,2013-11-03 08:20:00,
2013-11-03 02:22:00,49.2,39.8,30.17,NNE,25,0.0,0.0,70,0.00,,SKC,0.00,VWS V14.01,2013-11-03 08:22:00,
2013-11-03 02:27:00,48.8,39.8,30.17,NNE,25,0.0,0.0,71,0.00,,SKC,0.00,VWS V14.01,2013-11-03 08:27:00,
2013-11-03 02:30:00,49.0,40.0,30.17,NNE,25,0.0,0.0,71,0.00,,SKC,0.00,VWS V14.01,2013-11-03 08:30:00,
2013-11-03 02:32:00,48.5,39.9,30.17,NNE,25,0.0,0.0,72,0.00,,SKC,0.00,VWS V14.01,2013-11-03 08:32:00,
2013-11-03 02:37:00,48.2,39.6,30.17,NNE,25,0.0,0.0,72,0.00,,SKC,0.00,VWS V14.01,2013-11-03 08:37:00,
2013-11-03 02:40:00,48.3,39.7,30.17,NNE,25,0.0,0.0,72,0.00,,SKC,0.00,VWS V14.01,2013-11-03 08:40:00,
2013-11-03 02:42:00,47.9,39.7,30.17,NNE,25,0.0,0.0,73,0.00,,SKC,0.00,VWS V14.01,2013-11-03 08:42:00,
2013-11-03 02:47:00,47.6,39.7,30.16,NNE,25,0.0,0.0,74,0.00,,SKC,0.00,VWS V14.01,2013-11-03 08:47:00,
2013-11-03 02:50:00,47.7,39.5,30.17,NNE,25,0.0,0.0,73,0.00,,SKC,0.00,VWS V14.01,2013-11-03 08:50:00,
2013-11-03 02:52:00,47.3,39.8,30.16,NNE,25,0.0,0.0,75,0.00,,SKC,0.00,VWS V14.01,2013-11-03 08:52:00,
2013-11-03 02:57:00,47.1,39.6,30.16,NNE,25,0.0,0.0,75,0.00,,SKC,0.00,VWS V14.01,2013-11-03 08:57:00,
2013-11-03 03:00:00,47.2,39.7,30.16,NNE,25,0.0,0.0,75,0.00,,SKC,0.00,VWS V14.01,2013-11-03 09:00:00,
2013-11-03 03:02:00,46.9,39.7,30.16,NNE,25,0.0,0.0,76,0.00,,SKC,0.00,VWS V14.01,2013-11-03 09:02:00,
2013-11-03 03:07:00,46.7,39.5,30.16,NNE,25,0.0,0.0,76,0.00,,SKC,0.00,VWS V14.01,2013-11-03 09:07:00,
2013-11-03 03:10:00,46.8,39.7,30.16,NNE,25,0.0,0.0,76,0.00,,SKC,0.00,VWS V14.01,2013-11-03 09:10:00,
2013-11-03 03:12:00,46.5,39.7,30.16,NNE,25,0.0,0.0,77,0.00,,SKC,0.00,VWS V14.01,2013-11-03 09:12:00,
2013-11-03 03:17:00,46.3,39.5,30.16,NNE,25,0.0,0.0,77,0.00,,SKC,0.00,VWS V14.01,2013-11-03 09:17:00,
2013-11-03 03:20:00,46.4,39.6,30.16,NNE,25,0.0,0.0,77,0.00,,SKC,0.00,VWS V14.01,2013-11-03 09:20:00,
2013-11-03 03:22:00,46.1,39.6,30.16,NNE,25,0.0,0.0,78,0.00,,SKC,0.00,VWS V14.01,2013-11-03 09:22:00,
2013-11-03 03:27:00,45.9,39.4,30.16,NNE,25,0.0,0.0,78,0.00,,SKC,0.00,VWS V14.01,2013-11-03 09:27:00,
2013-11-03 03:30:00,46.0,39.5,30.16,NNE,25,0.0,0.0,78,0.00,,SKC,0.00,VWS V14.01,2013-11-03 09:30:00,
2013-11-03 03:32:00,45.8,39.3,30.16,NNE,25,0.0,0.0,78,0.00,,SKC,0.00,VWS V14.01,2013-11-03 09:32:00,
2013-11-03 03:37:00,45.7,39.6,30.16,NNE,25,0.0,0.0,79,0.00,,SKC,0.00,VWS V14.01,2013-11-03 09:37:00,
2013-11-03 03:40:00,45.8,39.7,30.16,NNE,25,0.0,0.0,79,0.00,,SKC,0.00,VWS V14.01,2013-11-03 09:40:00,
2013-11-03 03:42:00,45.8,39.3,30.16,NNE,25,0.0,0.0,78,0.00,,SKC,0.00,VWS V14.01,2013-11-03 09:42:00,
2013-11-03 03:47:00,45.9,39.4,30.15,NNE,25,0.0,0.0,78,0.00,,SKC,0.00,VWS V14.01,2013-11-03 09:47:00,
2013-11-03 03:50:00,45.8,39.3,30.16,NNE,25,0.0,0.0,78,0.00,,SKC,0.00,VWS V14.01,2013-11-03 09:50:00,
2013-11-03 03:52:00,45.9,39.4,30.15,NNE,25,0.0,0.0,78,0.00,,SKC,0.00,VWS V14.01,2013-11-03 09:52:00,
2013-11-03 03:57:00,46.0,39.2,30.16,NNE,25,0.0,0.0,77,0.00,,SKC,0.00,VWS V14.01,2013-11-03 09:57:00,
2013-11-03 04:00:00,46.0,39.2,30.16,NNE,25,0.0,0.0,77,0.00,,SKC,0.00,VWS V14.01,2013-11-03 10:00:00,
2013-11-03 04:02:00,46.2,39.7,30.16,NNE,25,0.0,0.0,78,0.00,,SKC,0.00,VWS V14.01,2013-11-03 10:02:00,
2013-11-03 04:07:00,46.4,39.6,30.16,NNE,25,0.0,0.0,77,0.00,,SKC,0.00,VWS V14.01,2013-11-03 10:07:00,
2013-11-03 04:10:00,46.4,39.6,30.16,NNE,25,0.0,0.0,77,0.00,,SKC,0.00,VWS V14.01,2013-11-03 10:10:00,
2013-11-03 04:12:00,46.5,39.7,30.16,NNE,25,0.0,0.0,77,0.00,,SKC,0.00,VWS V14.01,2013-11-03 10:12:00,
2013-11-03 04:17:00,46.4,39.6,30.16,NNE,25,0.0,0.0,77,0.00,,SKC,0.00,VWS V14.01,2013-11-03 10:17:00,
2013-11-03 04:20:00,46.4,39.6,30.16,NNE,25,0.0,0.0,77,0.00,,SKC,0.00,VWS V14.01,2013-11-03 10:20:00,
2013-11-03 04:22:00,46.2,39.4,30.16,NNE,25,0.0,0.0,77,0.00,,SKC,0.00,VWS V14.01,2013-11-03 10:22:00,
2013-11-03 04:27:00,46.0,39.5,30.16,NNE,25,0.0,0.0,78,0.00,,SKC,0.00,VWS V14.01,2013-11-03 10:27:00,
2013-11-03 04:30:00,46.1,39.3,30.16,NNE,25,0.0,0.0,77,0.00,,SKC,0.00,VWS V14.01,2013-11-03 10:30:00,
2013-11-03 04:32:00,45.8,39.0,30.16,NNE,25,0.0,0.0,77,0.00,,SKC,0.00,VWS V14.01,2013-11-03 10:32:00,
2013-11-03 04:37:00,45.5,39.0,30.16,NNE,25,0.0,0.0,78,0.00,,SKC,0.00,VWS V14.01,2013-11-03 10:37:00,
2013-11-03 04:40:00,45.6,39.2,30.16,NNE,25,0.0,0.0,78,0.00,,SKC,0.00,VWS V14.01,2013-11-03 10:40:00,
2013-11-03 04:42:00,45.3,38.9,30.16,NNE,25,0.0,0.0,78,0.00,,SKC,0.00,VWS V14.01,2013-11-03 10:42:00,
2013-11-03 04:47:00,45.2,38.8,30.16,NNE,25,0.0,0.0,78,0.00,,SKC,0.00,VWS V14.01,2013-11-03 10:47:00,
2013-11-03 04:50:00,45.2,38.8,30.16,NNE,25,0.0,0.0,78,0.00,,SKC,0.00,VWS V14.01,2013-11-03 10:50:00,
2013-11-03 04:52:00,45.1,39.0,30.16,NNE,25,0.0,0.0,79,0.00,,SKC,0.00,VWS V14.01,2013-11-03 10:52:00,
2013-11-03 04:57:00,45.0,38.9,30.16,NNE,25,0.0,0.0,79,0.00,,SKC,0.00,VWS V14.01,2013-11-03 10:57:00,
2013-11-03 05:00:00,45.0,38.9,30.16,NNE,25,0.0,0.0,79,0.00,,SKC,0.00,VWS V14.01,2013-11-03 11:00:00,
2013-11-03 05:02:00,44.9,38.8,30.16,NNE,25,0.0,0.0,79,0.00,,SKC,0.00,VWS V14.01,2013-11-03 11:02:00,
2013-11-03 05:07:00,44.8,39.0,30.16,NNE,25,0.0,0.0,80,0.00,,SKC,0.00,VWS V14.01,2013-11-03 11:07:00,
2013-11-03 05:10:00,44.8,39.0,30.16,NNE,25,0.0,0.0,80,0.00,,SKC,0.00,VWS V14.01,2013-11-03 11:10:00,
2013-11-03 05:12:00,44.6,38.8,30.16,NNE,25,0.0,0.0,80,0.00,,SKC,0.00,VWS V14.01,2013-11-03 11:12:00,
2013-11-03 05:17:00,44.4,38.6,30.16,NNE,25,0.0,0.0,80,0.00,,SKC,0.00,VWS V14.01,2013-11-03 11:17:00,
2013-11-03 05:20:00,44.5,38.7,30.16,NNE,25,0.0,0.0,80,0.00,,SKC,0.00,VWS V14.01,2013-11-03 11:20:00,
2013-11-03 05:22:00,44.3,38.5,30.16,NNE,25,0.0,0.0,80,0.00,,SKC,0.00,VWS V14.01,2013-11-03 11:22:00,
2013-11-03 05:27:00,44.2,38.8,30.16,NNE,25,0.0,0.0,81,0.00,,SKC,0.00,VWS V14.01,2013-11-03 11:27:00,
2013-11-03 05:30:00,44.2,38.4,30.16,NNE,25,0.0,0.0,80,0.00,,SKC,0.00,VWS V14.01,2013-11-03 11:30:00,
2013-11-03 05:32:00,44.2,38.8,30.16,NNE,25,0.0,0.0,81,0.00,,SKC,0.00,VWS V14.01,2013-11-03 11:32:00,
2013-11-03 05:37:00,44.0,38.2,30.16,NNE,25,0.0,0.0,80,0.00,,SKC,0.00,VWS V14.01,2013-11-03 11:37:00,
2013-11-03 05:40:00,44.1,38.3,30.16,NNE,25,0.0,0.0,80,0.00,,SKC,0.00,VWS V14.01,2013-11-03 11:40:00,
2013-11-03 05:42:00,43.9,38.5,30.16,NNE,25,0.0,0.0,81,0.00,,SKC,0.00,VWS V14.01,2013-11-03 11:42:00,
2013-11-03 05:47:00,43.8,38.4,30.16,NNE,25,0.0,0.0,81,0.00,,SKC,0.00,VWS V14.01,2013-11-03 11:47:00,
2013-11-03 05:50:00,43.8,38.4,30.16,NNE,25,0.0,0.0,81,0.00,,SKC,0.00,VWS V14.01,2013-11-03 11:50:00,
2013-11-03 05:52:00,43.7,38.3,30.16,NNE,25,0.0,0.0,81,0.00,,SKC,0.00,VWS V14.01,2013-11-03 11:52:00,
2013-11-03 05:57:00,43.6,38.5,30.16,NNE,25,0.0,0.0,82,0.00,,SKC,0.00,VWS V14.01,2013-11-03 11:57:00,
2013-11-03 06:00:00,43.6,38.5,30.16,NNE,25,0.0,0.0,82,0.00,,SKC,0.00,VWS V14.01,2013-11-03 12:00:00,
2013-11-03 06:02:00,43.5,38.4,30.16,NNE,25,0.0,0.0,82,0.00,,SKC,0.00,VWS V14.01,2013-11-03 12:02:00,
2013-11-03 06:07:00,43.5,38.4,30.16,NNE,25,0.0,0.0,82,0.00,,SKC,0.00,VWS V14.01,2013-11-03 12:07:00,
2013-11-03 06:10:00,43.5,38.4,30.16,NNE,25,0.0,0.0,82,0.00,,SKC,0.00,VWS V14.01,2013-11-03 12:10:00,
2013-11-03 06:12:00,43.4,38.3,30.16,NNE,25,0.0,0.0,82,0.00,,SKC,0.00,VWS V14.01,2013-11-03 12:12:00,
2013-11-03 06:17:00,43.4,38.0,30.16,NNE,25,0.0,0.0,81,0.00,,SKC,0.00,VWS V14.01,2013-11-03 12:17:00,
2013-11-03 06:20:00,43.4,38.0,30.16,NNE,25,0.0,0.0,81,0.00,,SKC,0.00,VWS V14.01,2013-11-03 12:20:00,
2013-11-03 06:22:00,43.3,37.9,30.16,NNE,25,0.0,0.0,81,0.00,,SKC,0.00,VWS V14.01,2013-11-03 12:22:00,
2013-11-03 06:27:00,43.3,37.9,30.15,NNE,25,0.0,0.0,81,0.00,,SKC,0.00,VWS V14.01,2013-11-03 12:27:00,
2013-11-03 06:30:00,43.3,37.9,30.16,NNE,25,0.0,0.0,81,0.00,,SKC,0.00,VWS V14.01,2013-11-03 12:30:00,
2013-11-03 06:32:00,43.4,38.0,30.15,NNE,25,0.0,0.0,81,0.00,,SKC,0.00,VWS V14.01,2013-11-03 12:32:00,
2013-11-03 06:37:00,43.4,38.0,30.15,NNE,25,0.0,0.0,81,0.00,,SKC,0.00,VWS V14.01,2013-11-03 12:37:00,
2013-11-03 06:40:00,43.4,38.0,30.16,NNE,25,0.0,0.0,81,0.00,,SKC,0.00,VWS V14.01,2013-11-03 12:40:00,
2013-11-03 06:42:00,43.5,38.1,30.15,NNE,25,0.0,0.0,81,0.00,,SKC,0.00,VWS V14.01,2013-11-03 12:42:00,
2013-11-03 06:47:00,43.6,38.2,30.15,NNE,25,0.0,0.0,81,0.00,,SKC,0.00,VWS V14.01,2013-11-03 12:47:00,
2013-11-03 06:50:00,43.6,38.2,30.16,NNE,25,0.0,0.0,81,0.00,,SKC,0.00,VWS V14.01,2013-11-03 12:50:00,
2013-11-03 06:52:00,43.9,38.5,30.15,NNE,25,0.0,0.0,81,0.00,,SKC,0.00,VWS V14.01,2013-11-03 12:52:00,
2013-11-03 06:57:00,44.1,38.3,30.15,NNE,25,0.0,0.0,80,0.00,,SKC,0.00,VWS V14.01,2013-11-03 12:57:00,
2013-11-03 07:00:00,44.0,38.5,30.15,NNE,25,0.0,0.0,81,0.00,,SKC,0.00,VWS V14.01,2013-11-03 13:00:00,
2013-11-03 07:02:00,44.3,38.5,30.15,NNE,25,0.0,0.0,80,0.00,,SKC,0.00,VWS V14.01,2013-11-03 13:02:00,
2013-11-03 07:07:00,44.5,38.7,30.16,NNE,25,0.0,0.0,80,0.00,,SKC,0.00,VWS V14.01,2013-11-03 13:07:00,
2013-11-03 07:10:00,44.4,38.6,30.15,NNE,25,0.0,0.0,80,0.00,,SKC,0.00,VWS V14.01,2013-11-03 13:10:00,
2013-11-03 07:12:00,44.7,38.9,30.16,NNE,25,0.0,0.0,80,0.00,,SKC,0.00,VWS V14.01,2013-11-03 13:12:00,
2013-11-03 07:17:00,44.9,38.8,30.16,NNE,25,0.0,0.0,79,0.00,,SKC,0.00,VWS V14.01,2013-11-03 13:17:00,
2013-11-03 07:20:00,44.8,38.7,30.16,NNE,25,0.0,0.0,79,0.00,,SKC,0.00,VWS V14.01,2013-11-03 13:20:00,
2013-11-03 07:22:00,45.0,38.9,30.16,NNE,25,0.0,0.0,79,0.00,,SKC,0.00,VWS V14.01,2013-11-03 13:22:00,
2013-11-03 07:27:00,45.1,39.0,30.16,NNE,25,0.0,0.0,79,0.00,,SKC,0.00,VWS V14.01,2013-11-03 13:27:00,
2013-11-03 07:30:00,45.1,39.0,30.16,NNE,25,0.0,0.0,79,0.00,,SKC,0.00,VWS V14.01,2013-11-03 13:30:00,
2013-11-03 07:32:00,45.3,39.2,30.16,NNE,25,0.0,0.0,79,0.00,,SKC,0.00,VWS V14.01,2013-11-03 13:32:00,
2013-11-03 07:37:00,45.6,39.5,30.16,NNE,25,0.0,0.0,79,0.00,,SKC,0.00,VWS V14.01,2013-11-03 13:37:00,
2013-11-03 07:40:00,45.5,39.4,30.16,NNE,25,0.0,0.0,79,0.00,,SKC,0.00,VWS V14.01,2013-11-03 13:40:00,
2013-11-03 07:42:00,46.0,39.9,30.17,NNE,25,0.0,0.0,79,0.00,,SKC,0.00,VWS V14.01,2013-11-03 13:42:00,
2013-11-03 07:47:00,46.6,40.5,30.17,NNE,25,0.0,0.0,79,0.00,,SKC,0.00,VWS V14.01,2013-11-03 13:47:00,
2013-11-03 07:50:00,46.3,40.2,30.17,NNE,25,0.0,0.0,79,0.00,,SKC,0.00,VWS V14.01,2013-11-03 13:50:00,
2013-11-03 07:52:00,47.6,40.8,30.17,NNE,25,0.0,0.0,77,0.00,,SKC,0.00,VWS V14.01,2013-11-03 13:52:00,
2013-11-03 07:57:00,48.9,41.3,30.17,NNE,25,0.0,0.0,75,0.00,,SKC,0.00,VWS V14.01,2013-11-03 13:57:00,
2013-11-03 08:00:00,48.5,41.3,30.17,NNE,25,0.0,0.0,76,0.00,,SKC,0.00,VWS V14.01,2013-11-03 14:00:00,
2013-11-03 08:02:00,50.3,42.0,30.17,NNE,25,0.0,0.0,73,0.00,,SKC,0.00,VWS V14.01,2013-11-03 14:02:00,
2013-11-03 08:07:00,51.5,42.0,30.17,NNE,25,0.0,0.0,70,0.00,,SKC,0.00,VWS V14.01,2013-11-03 14:07:00,
2013-11-03 08:10:00,51.1,41.7,30.17,NNE,25,0.0,1.0,70,0.00,,SKC,0.00,VWS V14.01,2013-11-03 14:10:00,
2013-11-03 08:12:00,52.8,42.2,30.17,NNE,25,0.0,0.0,67,0.00,,SKC,0.00,VWS V14.01,2013-11-03 14:12:00,
2013-11-03 08:17:00,53.9,42.0,30.17,NNE,25,0.0,0.0,64,0.00,,SKC,0.00,VWS V14.01,2013-11-03 14:17:00,
2013-11-03 08:20:00,53.6,42.5,30.17,NNE,25,0.0,0.0,66,0.00,,SKC,0.00,VWS V14.01,2013-11-03 14:20:00,
2013-11-03 08:22:00,54.9,42.6,30.18,NNE,25,0.0,0.0,63,0.00,,SKC,0.00,VWS V14.01,2013-11-03 14:22:00,
2013-11-03 08:27:00,55.8,42.1,30.18,NNE,25,0.0,0.0,60,0.00,,SKC,0.00,VWS V14.01,2013-11-03 14:27:00,
2013-11-03 08:30:00,55.5,41.9,30.18,NNE,25,0.0,0.0,60,0.00,,SKC,0.00,VWS V14.01,2013-11-03 14:30:00,
2013-11-03 08:32:00,56.4,42.3,30.18,NNE,26,0.0,0.0,59,0.00,,SKC,0.00,VWS V14.01,2013-11-03 14:32:00,
2013-11-03 08:37:00,56.8,42.2,30.18,NNE,27,0.0,0.0,58,0.00,,SKC,0.00,VWS V14.01,2013-11-03 14:37:00,
2013-11-03 08:40:00,56.7,42.1,30.17,NNE,26,0.0,0.0,58,0.00,,SKC,0.00,VWS V14.01,2013-11-03 14:40:00,
2013-11-03 08:42:00,57.1,42.5,30.18,NNE,27,0.0,0.0,58,0.00,,SKC,0.00,VWS V14.01,2013-11-03 14:42:00,
2013-11-03 08:47:00,57.5,41.9,30.18,NE,55,0.0,0.0,56,0.00,,SKC,0.00,VWS V14.01,2013-11-03 14:47:00,
2013-11-03 08:50:00,57.4,41.8,30.18,NE,54,0.0,0.0,56,0.00,,SKC,0.00,VWS V14.01,2013-11-03 14:50:00,
2013-11-03 08:52:00,57.8,42.7,30.18,NE,56,0.0,0.0,57,0.00,,SKC,0.00,VWS V14.01,2013-11-03 14:52:00,
2013-11-03 08:57:00,58.1,43.0,30.18,ENE,59,0.0,0.0,57,0.00,,SKC,0.00,VWS V14.01,2013-11-03 14:57:00,
2013-11-03 09:00:00,58.0,42.4,30.18,ENE,59,0.0,0.0,56,0.00,,SKC,0.00,VWS V14.01,2013-11-03 15:00:00,
2013-11-03 09:02:00,58.4,42.8,30.18,ENE,69,0.0,0.0,56,0.00,,SKC,0.00,VWS V14.01,2013-11-03 15:02:00,
2013-11-03 09:07:00,58.6,43.0,30.18,ENE,72,0.0,0.0,56,0.00,,SKC,0.00,VWS V14.01,2013-11-03 15:07:00,
2013-11-03 09:10:00,58.5,43.3,30.18,ENE,72,0.0,0.0,57,0.00,,SKC,0.00,VWS V14.01,2013-11-03 15:10:00,
2013-11-03 09:12:00,58.9,43.7,30.18,ENE,72,0.0,0.0,57,0.00,,SKC,0.00,VWS V14.01,2013-11-03 15:12:00,
2013-11-03 09:17:00,59.5,44.3,30.18,ENE,73,0.0,0.0,57,0.00,,SKC,0.00,VWS V14.01,2013-11-03 15:17:00,
2013-11-03 09:20:00,59.3,44.5,30.18,ENE,72,0.0,0.0,58,0.00,,SKC,0.00,VWS V14.01,2013-11-03 15:20:00,
2013-11-03 09:22:00,60.0,44.3,30.19,ENE,74,0.0,0.0,56,0.00,,SKC,0.00,VWS V14.01,2013-11-03 15:22:00,
2013-11-03 09:27:00,60.2,43.0,30.19,ENE,74,0.0,0.0,53,0.00,,SKC,0.00,VWS V14.01,2013-11-03 15:27:00,
2013-11-03 09:30:00,60.2,43.0,30.18,ENE,74,0.0,0.0,53,0.00,,SKC,0.00,VWS V14.01,2013-11-03 15:30:00,
2013-11-03 09:32:00,60.4,43.2,30.18,ESE,105,0.0,0.0,53,0.00,,SKC,0.00,VWS V14.01,2013-11-03 15:32:00,
2013-11-03 09:37:00,60.7,43.5,30.18,ESE,105,0.0,0.0,53,0.00,,SKC,0.00,VWS V14.01,2013-11-03 15:37:00,
2013-11-03 09:40:00,60.5,43.8,30.18,ESE,105,0.0,0.0,54,0.00,,SKC,0.00,VWS V14.01,2013-11-03 15:40:00,
2013-11-03 09:42:00,61.0,43.3,30.18,ESE,109,0.0,0.0,52,0.00,,SKC,0.00,VWS V14.01,2013-11-03 15:42:00,
2013-11-03 09:47:00,61.3,43.0,30.18,ESE,114,0.0,0.0,51,0.00,,SKC,0.00,VWS V14.01,2013-11-03 15:47:00,
2013-11-03 09:50:00,61.2,43.0,30.18,ESE,114,0.0,0.0,51,0.00,,SKC,0.00,VWS V14.01,2013-11-03 15:50:00,
2013-11-03 09:52:00,61.5,43.2,30.18,ESE,113,0.0,0.0,51,0.00,,SKC,0.00,VWS V14.01,2013-11-03 15:52:00,
2013-11-03 09:57:00,61.9,43.1,30.18,ESE,113,0.0,0.0,50,0.00,,SKC,0.00,VWS V14.01,2013-11-03 15:57:00,
2013-11-03 10:00:00,61.8,43.5,30.18,ESE,113,0.0,0.0,51,0.00,,SKC,0.00,VWS V14.01,2013-11-03 16:00:00,
2013-11-03 10:02:00,62.4,43.5,30.17,ESE,113,0.0,0.0,50,0.00,,SKC,0.00,VWS V14.01,2013-11-03 16:02:00,
2013-11-03 10:07:00,62.9,44.0,30.17,ESE,109,0.0,0.0,50,0.00,,SKC,0.00,VWS V14.01,2013-11-03 16:07:00,
2013-11-03 10:10:00,62.7,43.8,30.17,ESE,112,0.0,0.0,50,0.00,,SKC,0.00,VWS V14.01,2013-11-03 16:10:00,
2013-11-03 10:12:00,63.5,43.5,30.17,ESE,109,0.0,0.0,48,0.00,,SKC,0.00,VWS V14.01,2013-11-03 16:12:00,
2013-11-03 10:17:00,63.9,43.3,30.17,ESE,109,0.0,0.0,47,0.00,,SKC,0.00,VWS V14.01,2013-11-03 16:17:00,
2013-11-03 10:20:00,63.8,43.2,30.18,ESE,109,0.0,0.0,47,0.00,,SKC,0.00,VWS V14.01,2013-11-03 16:20:00,
2013-11-03 10:22:00,64.2,42.4,30.17,ESE,109,0.0,0.0,45,0.00,,SKC,0.00,VWS V14.01,2013-11-03 16:22:00,
2013-11-03 10:27:00,64.4,42.0,30.17,ESE,111,0.0,0.0,44,0.00,,SKC,0.00,VWS V14.01,2013-11-03 16:27:00,
2013-11-03 10:30:00,64.3,41.9,30.17,ESE,109,0.0,0.0,44,0.00,,SKC,0.00,VWS V14.01,2013-11-03 16:30:00,
2013-11-03 10:32:00,64.5,42.1,30.17,ESE,111,0.0,0.0,44,0.00,,SKC,0.00,VWS V14.01,2013-11-03 16:32:00,
2013-11-03 10:37:00,64.7,41.1,30.17,ESE,113,0.0,0.0,42,0.00,,SKC,0.00,VWS V14.01,2013-11-03 16:37:00,
2013-11-03 10:40:00,64.6,41.6,30.17,ESE,112,0.0,0.0,43,0.00,,SKC,0.00,VWS V14.01,2013-11-03 16:40:00,
2013-11-03 10:42:00,64.7,40.5,30.16,ESE,111,0.0,0.0,41,0.00,,SKC,0.00,VWS V14.01,2013-11-03 16:42:00,
2013-11-03 10:47:00,64.8,40.6,30.16,ESE,106,0.0,0.0,41,0.00,,SKC,0.00,VWS V14.01,2013-11-03 16:47:00,
2013-11-03 10:50:00,64.7,40.5,30.16,ESE,109,0.0,0.0,41,0.00,,SKC,0.00,VWS V14.01,2013-11-03 16:50:00,
2013-11-03 10:52:00,65.1,39.5,30.16,East,101,0.0,0.0,39,0.00,,SKC,0.00,VWS V14.01,2013-11-03 16:52:00,
2013-11-03 10:57:00,65.4,39.2,30.16,East,96,0.0,0.0,38,0.00,,SKC,0.00,VWS V14.01,2013-11-03 16:57:00,
2013-11-03 11:00:00,65.3,39.7,30.16,East,93,0.0,0.0,39,0.00,,SKC,0.00,VWS V14.01,2013-11-03 17:00:00,
2013-11-03 11:02:00,65.5,39.2,30.16,East,95,0.0,0.0,38,0.00,,SKC,0.00,VWS V14.01,2013-11-03 17:02:00,
2013-11-03 11:07:00,65.8,39.5,30.16,ESE,113,0.0,0.0,38,0.00,,SKC,0.00,VWS V14.01,2013-11-03 17:07:00,
2013-11-03 11:10:00,65.8,40.2,30.16,ESE,118,0.0,0.0,39,0.00,,SKC,0.00,VWS V14.01,2013-11-03 17:10:00,
2013-11-03 11:12:00,66.2,40.5,30.16,ESE,111,0.0,0.0,39,0.00,,SKC,0.00,VWS V14.01,2013-11-03 17:12:00,
2013-11-03 11:17:00,66.6,40.2,30.16,ESE,111,0.0,0.0,38,0.00,,SKC,0.00,VWS V14.01,2013-11-03 17:17:00,
2013-11-03 11:20:00,66.5,40.1,30.16,ESE,111,0.0,0.0,38,0.00,,SKC,0.00,VWS V14.01,2013-11-03 17:20:00,
2013-11-03 11:22:00,67.2,40.1,30.15,ESE,111,0.0,0.0,37,0.00,,SKC,0.00,VWS V14.01,2013-11-03 17:22:00,
2013-11-03 11:27:00,67.5,40.3,30.16,ESE,109,0.0,0.0,37,0.00,,SKC,0.00,VWS V14.01,2013-11-03 17:27:00,
2013-11-03 11:30:00,67.4,40.2,30.16,ESE,110,0.0,0.0,37,0.00,,SKC,0.00,VWS V14.01,2013-11-03 17:30:00,
2013-11-03 11:32:00,67.7,39.8,30.15,ESE,109,0.0,0.0,36,0.00,,SKC,0.00,VWS V14.01,2013-11-03 17:32:00,
2013-11-03 11:37:00,67.8,39.9,30.15,ESE,109,0.0,0.0,36,0.00,,SKC,0.00,VWS V14.01,2013-11-03 17:37:00,
2013-11-03 11:40:00,67.8,39.9,30.15,ESE,109,0.0,0.0,36,0.00,,SKC,0.00,VWS V14.01,2013-11-03 17:40:00,
2013-11-03 11:42:00,68.0,40.8,30.15,ESE,112,0.0,0.0,37,0.00,,SKC,0.00,VWS V14.01,2013-11-03 17:42:00,
2013-11-03 11:47:00,68.0,40.1,30.14,SE,130,0.0,0.0,36,0.00,,SKC,0.00,VWS V14.01,2013-11-03 17:47:00,
2013-11-03 11:50:00,68.0,39.3,30.14,SE,131,0.0,0.0,35,0.00,,SKC,0.00,VWS V14.01,2013-11-03 17:50:00,
2013-11-03 11:52:00,68.2,41.0,30.14,SE,130,0.0,0.0,37,0.00,,SKC,0.00,VWS V14.01,2013-11-03 17:52:00,
2013-11-03 11:57:00,68.3,38.9,30.14,SE,131,0.0,0.0,34,0.00,,SKC,0.00,VWS V14.01,2013-11-03 17:57:00,
2013-11-03 12:00:00,68.3,38.9,30.14,SE,131,0.0,0.0,34,0.00,,SKC,0.00,VWS V14.01,2013-11-03 18:00:00,
2013-11-03 12:02:00,68.5,39.0,30.13,SE,132,0.0,0.0,34,0.00,,SKC,0.00,VWS V14.01,2013-11-03 18:02:00,
2013-11-03 12:06:00,68.6,39.1,30.13,SE,129,0.0,0.0,34,0.00,,SKC,0.00,VWS V14.01,2013-11-03 18:06:00,
2013-11-03 12:10:00,68.6,39.1,30.13,SE,129,0.0,0.0,34,0.00,,SKC,0.00,VWS V14.01,2013-11-03 18:10:00,
2013-11-03 12:11:00,68.7,40.0,30.12,SE,129,0.0,0.0,35,0.00,,SKC,0.00,VWS V14.01,2013-11-03 18:11:00,
2013-11-03 12:17:00,68.9,38.6,30.12,SE,128,0.0,0.0,33,0.00,,SKC,0.00,VWS V14.01,2013-11-03 18:17:00,
2013-11-03 12:20:00,68.9,38.6,30.12,SE,128,0.0,0.0,33,0.00,,SKC,0.00,VWS V14.01,2013-11-03 18:20:00,
2013-11-03 12:22:00,69.3,39.8,30.12,SE,128,0.0,0.0,34,0.00,,SKC,0.00,VWS V14.01,2013-11-03 18:22:00,
2013-11-03 12:26:00,69.6,37.7,30.12,SE,126,0.0,0.0,31,0.00,,SKC,0.00,VWS V14.01,2013-11-03 18:26:00,
2013-11-03 12:30:00,69.5,39.2,30.12,SE,126,0.0,0.0,33,0.00,,SKC,0.00,VWS V14.01,2013-11-03 18:30:00,
2013-11-03 12:31:00,69.6,38.5,30.11,SE,125,0.0,0.0,32,0.00,,SKC,0.00,VWS V14.01,2013-11-03 18:31:00,
2013-11-03 12:36:00,69.6,39.2,30.11,ESE,123,0.0,0.0,33,0.00,,SKC,0.00,VWS V14.01,2013-11-03 18:36:00,
2013-11-03 12:40:00,69.6,40.0,30.11,ESE,123,0.0,0.0,34,0.00,,SKC,0.00,VWS V14.01,2013-11-03 18:40:00,
2013-11-03 12:41:00,69.7,40.1,30.10,ESE,123,0.0,0.0,34,0.00,,SKC,0.00,VWS V14.01,2013-11-03 18:41:00,
2013-11-03 12:46:00,69.7,39.3,30.10,ESE,121,0.0,0.0,33,0.00,,SKC,0.00,VWS V14.01,2013-11-03 18:46:00,
2013-11-03 12:50:00,69.7,38.5,30.10,ESE,121,0.0,0.0,32,0.00,,SKC,0.00,VWS V14.01,2013-11-03 18:50:00,
2013-11-03 12:51:00,69.7,40.1,30.10,SE,124,0.0,0.0,34,0.00,,SKC,0.00,VWS V14.01,2013-11-03 18:51:00,
2013-11-03 12:56:00,69.8,40.9,30.09,ESE,123,0.0,0.0,35,0.00,,SKC,0.00,VWS V14.01,2013-11-03 18:56:00,
2013-11-03 13:00:00,69.8,40.2,30.09,ESE,123,0.0,0.0,34,0.00,,SKC,0.00,VWS V14.01,2013-11-03 19:00:00,
2013-11-03 13:01:00,69.9,40.3,30.09,ESE,123,0.0,0.0,34,0.00,,SKC,0.00,VWS V14.01,2013-11-03 19:01:00,
2013-11-03 13:06:00,70.1,39.7,30.08,SE,125,0.0,0.0,33,0.00,,SKC,0.00,VWS V14.01,2013-11-03 19:06:00,
2013-11-03 13:10:00,70.1,39.7,30.08,SE,126,0.0,0.0,33,0.00,,SKC,0.00,VWS V14.01,2013-11-03 19:10:00,
2013-11-03 13:11:00,70.2,39.8,30.08,SE,124,0.0,0.0,33,0.00,,SKC,0.00,VWS V14.01,2013-11-03 19:11:00,
2013-11-03 13:16:00,70.3,39.9,30.08,ESE,123,0.0,0.0,33,0.00,,SKC,0.00,VWS V14.01,2013-11-03 19:16:00,
2013-11-03 13:20:00,70.3,39.1,30.08,ESE,123,0.0,0.0,32,0.00,,SKC,0.00,VWS V14.01,2013-11-03 19:20:00,
2013-11-03 13:21:00,70.3,39.1,30.08,ESE,122,0.0,0.0,32,0.00,,SKC,0.00,VWS V14.01,2013-11-03 19:21:00,
2013-11-03 13:26:00,70.3,40.6,30.07,ESE,121,0.0,0.0,34,0.00,,SKC,0.00,VWS V14.01,2013-11-03 19:26:00,
2013-11-03 13:30:00,70.3,39.1,30.07,ESE,121,0.0,0.0,32,0.00,,SKC,0.00,VWS V14.01,2013-11-03 19:30:00,
2013-11-03 13:31:00,70.3,39.1,30.07,ESE,120,0.0,0.0,32,0.00,,SKC,0.00,VWS V14.01,2013-11-03 19:31:00,
2013-11-03 13:36:00,70.5,40.0,30.06,ESE,119,0.0,0.0,33,0.00,,SKC,0.00,VWS V14.01,2013-11-03 19:36:00,
2013-11-03 13:40:00,70.5,40.8,30.06,ESE,120,0.0,0.0,34,0.00,,SKC,0.00,VWS V14.01,2013-11-03 19:40:00,
2013-11-03 13:41:00,70.6,40.9,30.06,ESE,119,0.0,0.0,34,0.00,,SKC,0.00,VWS V14.01,2013-11-03 19:41:00,
2013-11-03 13:46:00,70.8,39.5,30.06,ESE,118,0.0,0.0,32,0.00,,SKC,0.00,VWS V14.01,2013-11-03 19:46:00,
2013-11-03 13:50:00,70.8,39.5,30.06,ESE,118,0.0,0.0,32,0.00,,SKC,0.00,VWS V14.01,2013-11-03 19:50:00,
2013-11-03 13:51:00,71.0,38.9,30.05,ESE,118,0.0,0.0,31,0.00,,SKC,0.00,VWS V14.01,2013-11-03 19:51:00,
2013-11-03 13:56:00,71.2,39.0,30.05,ESE,119,0.0,0.0,31,0.00,,SKC,0.00,VWS V14.01,2013-11-03 19:56:00,
2013-11-03 14:00:00,71.1,39.8,30.05,ESE,118,0.0,0.0,32,0.00,,SKC,0.00,VWS V14.01,2013-11-03 20:00:00,
2013-11-03 14:01:00,71.5,40.1,30.05,ESE,119,0.0,0.0,32,0.00,,SKC,0.00,VWS V14.01,2013-11-03 20:01:00,
2013-11-03 14:06:00,71.4,39.2,30.04,ESE,117,0.0,0.0,31,0.00,,SKC,0.00,VWS V14.01,2013-11-03 20:06:00,
2013-11-03 14:10:00,71.5,40.1,30.04,ESE,118,0.0,0.0,32,0.00,,SKC,0.00,VWS V14.01,2013-11-03 20:10:00,
2013-11-03 14:11:00,71.4,40.8,30.04,ESE,116,0.0,0.0,33,0.00,,SKC,0.00,VWS V14.01,2013-11-03 20:11:00,
2013-11-03 14:16:00,71.8,40.4,30.04,ESE,116,0.0,0.0,32,0.00,,SKC,0.00,VWS V14.01,2013-11-03 20:16:00,
2013-11-03 14:20:00,71.7,41.1,30.04,ESE,116,0.0,0.0,33,0.00,,SKC,0.00,VWS V14.01,2013-11-03 20:20:00,
2013-11-03 14:21:00,72.0,40.6,30.04,ESE,116,0.0,0.0,32,0.00,,SKC,0.00,VWS V14.01,2013-11-03 20:21:00,
2013-11-03 14:26:00,72.0,39.7,30.04,ESE,115,0.0,0.0,31,0.00,,SKC,0.00,VWS V14.01,2013-11-03 20:26:00,
2013-11-03 14:30:00,72.0,38.9,30.04,ESE,115,0.0,0.0,30,0.00,,SKC,0.00,VWS V14.01,2013-11-03 20:30:00,
2013-11-03 14:31:00,72.0,39.7,30.05,ESE,115,0.0,0.0,31,0.00,,SKC,0.00,VWS V14.01,2013-11-03 20:31:00,
2013-11-03 14:36:00,72.1,40.7,30.05,ESE,115,0.0,0.0,32,0.00,,SKC,0.00,VWS V14.01,2013-11-03 20:36:00,
2013-11-03 14:40:00,72.1,40.7,30.05,ESE,115,0.0,0.0,32,0.00,,SKC,0.00,VWS V14.01,2013-11-03 20:40:00,
2013-11-03 14:41:00,72.3,39.2,30.05,ESE,115,0.0,0.0,30,0.00,,SKC,0.00,VWS V14.01,2013-11-03 20:41:00,
2013-11-03 14:46:00,72.2,39.9,30.04,ESE,113,0.0,0.0,31,0.00,,SKC,0.00,VWS V14.01,2013-11-03 20:46:00,
2013-11-03 14:50:00,72.3,40.0,30.05,ESE,115,0.0,0.0,31,0.00,,SKC,0.00,VWS V14.01,2013-11-03 20:50:00,
2013-11-03 14:51:00,72.1,40.7,30.04,ESE,113,0.0,0.0,32,0.00,,SKC,0.00,VWS V14.01,2013-11-03 20:51:00,
2013-11-03 14:56:00,72.4,39.2,30.03,ESE,123,0.0,0.0,30,0.00,,SKC,0.00,VWS V14.01,2013-11-03 20:56:00,
2013-11-03 15:00:00,72.3,40.8,30.04,ESE,113,0.0,0.0,32,0.00,,SKC,0.00,VWS V14.01,2013-11-03 21:00:00,
2013-11-03 15:01:00,72.6,39.4,30.03,ESE,123,0.0,0.0,30,0.00,,SKC,0.00,VWS V14.01,2013-11-03 21:01:00,
2013-11-03 15:06:00,72.9,38.8,30.03,SE,124,0.0,0.0,29,0.00,,SKC,0.00,VWS V14.01,2013-11-03 21:06:00,
2013-11-03 15:10:00,72.8,39.6,30.03,ESE,123,0.0,0.0,30,0.00,,SKC,0.00,VWS V14.01,2013-11-03 21:10:00,
2013-11-03 15:11:00,73.0,38.0,30.03,SE,124,0.0,0.0,28,0.00,,SKC,0.00,VWS V14.01,2013-11-03 21:11:00,
2013-11-03 15:16:00,72.7,38.6,30.04,SE,124,0.0,0.0,29,0.00,,SKC,0.00,VWS V14.01,2013-11-03 21:16:00,
2013-11-03 15:20:00,72.8,37.8,30.04,SE,124,0.0,0.0,28,0.00,,SKC,0.00,VWS V14.01,2013-11-03 21:20:00,
2013-11-03 15:21:00,72.6,38.5,30.03,ESE,122,0.0,0.0,29,0.00,,SKC,0.00,VWS V14.01,2013-11-03 21:21:00,
2013-11-03 15:26:00,72.7,38.6,30.03,SE,124,0.0,0.0,29,0.00,,SKC,0.00,VWS V14.01,2013-11-03 21:26:00,
2013-11-03 15:30:00,72.6,37.7,30.03,SE,126,0.0,0.0,28,0.00,,SKC,0.00,VWS V14.01,2013-11-03 21:30:00,
2013-11-03 15:31:00,72.8,37.8,30.03,ESE,123,0.0,0.0,28,0.00,,SKC,0.00,VWS V14.01,2013-11-03 21:31:00,
2013-11-03 15:36:00,72.8,38.7,30.03,ESE,123,0.0,0.0,29,0.00,,SKC,0.00,VWS V14.01,2013-11-03 21:36:00,
2013-11-03 15:40:00,72.8,38.7,30.03,ESE,123,0.0,0.0,29,0.00,,SKC,0.00,VWS V14.01,2013-11-03 21:40:00,
2013-11-03 15:41:00,73.0,38.9,30.02,SE,126,0.0,0.0,29,0.00,,SKC,0.00,VWS V14.01,2013-11-03 21:41:00,
2013-11-03 15:46:00,73.3,39.2,30.02,SE,127,0.0,0.0,29,0.00,,SKC,0.00,VWS V14.01,2013-11-03 21:46:00,
2013-11-03 15:50:00,73.2,39.1,30.02,SE,127,0.0,0.0,29,0.00,,SKC,0.00,VWS V14.01,2013-11-03 21:50:00,
2013-11-03 15:51:00,73.1,39.8,30.02,ESE,123,0.0,0.0,30,0.00,,SKC,0.00,VWS V14.01,2013-11-03 21:51:00,
2013-11-03 15:56:00,72.9,39.7,30.02,ESE,123,0.0,0.0,30,0.00,,SKC,0.00,VWS V14.01,2013-11-03 21:56:00,
2013-11-03 16:00:00,73.0,39.8,30.02,ESE,123,0.0,0.0,30,0.00,,SKC,0.00,VWS V14.01,2013-11-03 22:00:00,
2013-11-03 16:01:00,72.4,40.1,30.02,ESE,123,0.0,0.0,31,0.00,,SKC,0.00,VWS V14.01,2013-11-03 22:01:00,
2013-11-03 16:06:00,71.6,40.2,30.02,ESE,121,0.0,0.0,32,0.00,,SKC,0.00,VWS V14.01,2013-11-03 22:06:00,
2013-11-03 16:10:00,71.8,39.6,30.02,ESE,122,0.0,0.0,31,0.00,,SKC,0.00,VWS V14.01,2013-11-03 22:10:00,
2013-11-03 16:11:00,71.4,40.8,30.02,ESE,122,0.0,0.0,33,0.00,,SKC,0.00,VWS V14.01,2013-11-03 22:11:00,
2013-11-03 16:16:00,71.8,40.4,30.02,ESE,122,0.0,0.0,32,0.00,,SKC,0.00,VWS V14.01,2013-11-03 22:16:00,
2013-11-03 16:20:00,71.7,40.3,30.02,ESE,122,0.0,0.0,32,0.00,,SKC,0.00,VWS V14.01,2013-11-03 22:20:00,
2013-11-03 16:21:00,72.3,41.6,30.01,ESE,121,0.0,0.0,33,0.00,,SKC,0.00,VWS V14.01,2013-11-03 22:21:00,
2013-11-03 16:26:00,72.5,41.0,30.01,ESE,121,0.0,0.0,32,0.00,,SKC,0.00,VWS V14.01,2013-11-03 22:26:00,
2013-11-03 16:30:00,72.4,41.7,30.01,ESE,121,0.0,0.0,33,0.00,,SKC,0.00,VWS V14.01,2013-11-03 22:30:00,
2013-11-03 16:31:00,72.6,41.1,30.01,ESE,121,0.0,0.0,32,0.00,,SKC,0.00,VWS V14.01,2013-11-03 22:31:00,
2013-11-03 16:36:00,72.6,41.1,30.01,ESE,121,0.0,0.0,32,0.00,,SKC,0.00,VWS V14.01,2013-11-03 22:36:00,
2013-11-03 16:40:00,72.6,41.1,30.01,ESE,121,0.0,0.0,32,0.00,,SKC,0.00,VWS V14.01,2013-11-03 22:40:00,
2013-11-03 16:41:00,72.4,41.7,30.01,ESE,121,0.0,0.0,33,0.00,,SKC,0.00,VWS V14.01,2013-11-03 22:41:00,
2013-11-03 16:46:00,72.3,41.6,30.01,ESE,122,0.0,0.0,33,0.00,,SKC,0.00,VWS V14.01,2013-11-03 22:46:00,
2013-11-03 16:50:00,72.3,41.6,30.01,ESE,122,0.0,0.0,33,0.00,,SKC,0.00,VWS V14.01,2013-11-03 22:50:00,
2013-11-03 16:51:00,72.0,42.1,30.02,ESE,122,0.0,0.0,34,0.00,,SKC,0.00,VWS V14.01,2013-11-03 22:51:00,
2013-11-03 16:56:00,71.6,41.8,30.02,ESE,122,0.0,0.0,34,0.00,,SKC,0.00,VWS V14.01,2013-11-03 22:56:00,
2013-11-03 17:00:00,71.7,42.6,30.02,ESE,122,0.0,0.0,35,0.00,,SKC,0.00,VWS V14.01,2013-11-03 23:00:00,
2013-11-03 17:01:00,70.9,41.9,30.01,ESE,122,0.0,0.0,35,0.00,,SKC,0.00,VWS V14.01,2013-11-03 23:01:00,
2013-11-03 17:06:00,70.3,42.1,30.01,ESE,122,0.0,0.0,36,0.00,,SKC,0.00,VWS V14.01,2013-11-03 23:06:00,
2013-11-03 17:10:00,70.4,42.2,30.02,ESE,122,0.0,0.0,36,0.00,,SKC,0.00,VWS V14.01,2013-11-03 23:10:00,
2013-11-03 17:11:00,69.7,42.3,30.02,ESE,122,0.0,0.0,37,0.00,,SKC,0.00,VWS V14.01,2013-11-03 23:11:00,
2013-11-03 17:16:00,69.2,42.5,30.02,ESE,122,0.0,0.0,38,0.00,,SKC,0.00,VWS V14.01,2013-11-03 23:16:00,
2013-11-03 17:20:00,69.3,42.6,30.02,ESE,122,0.0,0.0,38,0.00,,SKC,0.00,VWS V14.01,2013-11-03 23:20:00,
2013-11-03 17:21:00,68.8,42.9,30.02,ESE,122,0.0,0.0,39,0.00,,SKC,0.00,VWS V14.01,2013-11-03 23:21:00,
2013-11-03 17:26:00,68.5,43.2,30.03,ESE,122,0.0,0.0,40,0.00,,SKC,0.00,VWS V14.01,2013-11-03 23:26:00,
2013-11-03 17:30:00,68.6,42.7,30.02,ESE,122,0.0,0.0,39,0.00,,SKC,0.00,VWS V14.01,2013-11-03 23:30:00,
2013-11-03 17:31:00,68.3,43.1,30.03,ESE,122,0.0,0.0,40,0.00,,SKC,0.00,VWS V14.01,2013-11-03 23:31:00,
2013-11-03 17:36:00,68.0,42.8,30.03,ESE,122,0.0,0.0,40,0.00,,SKC,0.00,VWS V14.01,2013-11-03 23:36:00,
2013-11-03 17:40:00,68.0,42.8,30.03,ESE,122,0.0,0.0,40,0.00,,SKC,0.00,VWS V14.01,2013-11-03 23:40:00,
2013-11-03 17:41:00,67.7,43.8,30.03,ESE,122,0.0,0.0,42,0.00,,SKC,0.00,VWS V14.01,2013-11-03 23:41:00,
2013-11-03 17:46:00,67.5,43.6,30.03,ESE,122,0.0,0.0,42,0.00,,SKC,0.00,VWS V14.01,2013-11-03 23:46:00,
2013-11-03 17:50:00,67.6,43.7,30.03,ESE,122,0.0,0.0,42,0.00,,SKC,0.00,VWS V14.01,2013-11-03 23:50:00,
2013-11-03 17:51:00,67.3,43.5,30.03,ESE,122,0.0,0.0,42,0.00,,SKC,0.00,VWS V14.01,2013-11-03 23:51:00,
2013-11-03 17:56:00,67.0,43.8,30.03,ESE,122,0.0,0.0,43,0.00,,SKC,0.00,VWS V14.01,2013-11-03 23:56:00,
2013-11-03 18:00:00,67.0,43.8,30.03,ESE,122,0.0,0.0,43,0.00,,SKC,0.00,VWS V14.01,2013-11-04 00:00:00,
2013-11-03 18:01:00,66.7,44.1,30.03,ESE,122,0.0,0.0,44,0.00,,SKC,0.00,VWS V14.01,2013-11-04 00:01:00,
2013-11-03 18:06:00,66.4,43.8,30.04,ESE,122,0.0,0.0,44,0.00,,SKC,0.00,VWS V14.01,2013-11-04 00:06:00,
2013-11-03 18:10:00,66.5,43.9,30.03,ESE,122,0.0,0.0,44,0.00,,SKC,0.00,VWS V14.01,2013-11-04 00:10:00,
2013-11-03 18:11:00,66.1,43.6,30.03,ESE,122,0.0,0.0,44,0.00,,SKC,0.00,VWS V14.01,2013-11-04 00:11:00,
2013-11-03 18:16:00,65.8,43.9,30.03,ESE,122,0.0,0.0,45,0.00,,SKC,0.00,VWS V14.01,2013-11-04 00:16:00,
2013-11-03 18:20:00,65.9,44.0,30.03,ESE,122,0.0,0.0,45,0.00,,SKC,0.00,VWS V14.01,2013-11-04 00:20:00,
2013-11-03 18:21:00,65.6,44.3,30.04,ESE,122,0.0,0.0,46,0.00,,SKC,0.00,VWS V14.01,2013-11-04 00:21:00,
2013-11-03 18:26:00,65.3,45.1,30.04,ESE,122,0.0,0.0,48,0.00,,SKC,0.00,VWS V14.01,2013-11-04 00:26:00,
2013-11-03 18:30:00,65.4,44.7,30.04,ESE,122,0.0,0.0,47,0.00,,SKC,0.00,VWS V14.01,2013-11-04 00:30:00,
2013-11-03 18:31:00,65.1,45.5,30.04,ESE,122,0.0,0.0,49,0.00,,SKC,0.00,VWS V14.01,2013-11-04 00:31:00,
2013-11-03 18:36:00,64.8,45.7,30.03,ESE,122,0.0,0.0,50,0.00,,SKC,0.00,VWS V14.01,2013-11-04 00:36:00,
2013-11-03 18:40:00,64.9,45.8,30.04,ESE,122,0.0,0.0,50,0.00,,SKC,0.00,VWS V14.01,2013-11-04 00:40:00,
2013-11-03 18:41:00,64.6,46.1,30.04,ESE,122,0.0,0.0,51,0.00,,SKC,0.00,VWS V14.01,2013-11-04 00:41:00,
2013-11-03 18:46:00,64.4,45.9,30.04,ESE,122,0.0,0.0,51,0.00,,SKC,0.00,VWS V14.01,2013-11-04 00:46:00,
2013-11-03 18:50:00,64.4,45.9,30.04,ESE,122,0.0,0.0,51,0.00,,SKC,0.00,VWS V14.01,2013-11-04 00:50:00,
2013-11-03 18:51:00,64.1,46.1,30.05,ESE,122,0.0,0.0,52,0.00,,SKC,0.00,VWS V14.01,2013-11-04 00:51:00,
2013-11-03 18:56:00,63.9,46.0,30.04,ESE,122,0.0,0.0,52,0.00,,SKC,0.00,VWS V14.01,2013-11-04 00:56:00,
2013-11-03 19:00:00,63.9,46.0,30.04,ESE,122,0.0,0.0,52,0.00,,SKC,0.00,VWS V14.01,2013-11-04 01:00:00,
2013-11-03 19:01:00,63.5,46.1,30.05,ESE,122,0.0,0.0,53,0.00,,SKC,0.00,VWS V14.01,2013-11-04 01:01:00,
2013-11-03 19:06:00,63.2,46.3,30.05,ESE,122,0.0,0.0,54,0.00,,SKC,0.00,VWS V14.01,2013-11-04 01:06:00,
2013-11-03 19:10:00,63.3,45.9,30.05,ESE,122,0.0,0.0,53,0.00,,SKC,0.00,VWS V14.01,2013-11-04 01:10:00,
2013-11-03 19:11:00,62.8,45.9,30.05,ESE,122,0.0,0.0,54,0.00,,SKC,0.00,VWS V14.01,2013-11-04 01:11:00,
2013-11-03 19:16:00,62.5,46.1,30.05,ESE,122,0.0,0.0,55,0.00,,SKC,0.00,VWS V14.01,2013-11-04 01:16:00,
2013-11-03 19:20:00,62.6,46.2,30.05,ESE,122,0.0,0.0,55,0.00,,SKC,0.00,VWS V14.01,2013-11-04 01:20:00,
2013-11-03 19:21:00,62.2,46.3,30.05,ESE,122,0.0,0.0,56,0.00,,SKC,0.00,VWS V14.01,2013-11-04 01:21:00,
2013-11-03 19:26:00,62.1,47.2,30.05,ESE,122,0.0,0.0,58,0.00,,SKC,0.00,VWS V14.01,2013-11-04 01:26:00,
2013-11-03 19:30:00,62.1,47.2,30.05,ESE,122,0.0,0.0,58,0.00,,SKC,0.00,VWS V14.01,2013-11-04 01:30:00,
2013-11-03 19:31:00,62.0,47.1,30.05,ESE,122,0.0,0.0,58,0.00,,SKC,0.00,VWS V14.01,2013-11-04 01:31:00,
2013-11-03 19:36:00,62.1,47.6,30.05,ESE,122,0.0,0.0,59,0.00,,SKC,0.00,VWS V14.01,2013-11-04 01:36:00,
2013-11-03 19:40:00,62.1,47.6,30.05,ESE,122,0.0,0.0,59,0.00,,SKC,0.00,VWS V14.01,2013-11-04 01:40:00,
2013-11-03 19:41:00,62.1,47.6,30.06,ESE,122,0.0,0.0,59,0.00,,SKC,0.00,VWS V14.01,2013-11-04 01:41:00,
2013-11-03 19:46:00,62.1,47.6,30.06,ESE,122,0.0,0.0,59,0.00,,SKC,0.00,VWS V14.01,2013-11-04 01:46:00,
2013-11-03 19:50:00,62.1,47.6,30.06,ESE,122,0.0,0.0,59,0.00,,SKC,0.00,VWS V14.01,2013-11-04 01:50:00,
2013-11-03 19:51:00,62.1,48.1,30.06,ESE,122,0.0,0.0,60,0.00,,SKC,0.00,VWS V14.01,2013-11-04 01:51:00,
2013-11-03 19:56:00,62.1,48.1,30.06,ESE,122,0.0,0.0,60,0.00,,SKC,0.00,VWS V14.01,2013-11-04 01:56:00,
2013-11-03 20:00:00,62.1,48.1,30.06,ESE,122,0.0,0.0,60,0.00,,SKC,0.00,VWS V14.01,2013-11-04 02:00:00,
2013-11-03 20:01:00,62.1,48.1,30.07,ESE,122,0.0,0.0,60,0.00,,SKC,0.00,VWS V14.01,2013-11-04 02:01:00,
2013-11-03 20:06:00,62.1,48.1,30.07,ESE,122,0.0,0.0,60,0.00,,SKC,0.00,VWS V14.01,2013-11-04 02:06:00,
2013-11-03 20:10:00,62.1,48.1,30.07,ESE,122,0.0,0.0,60,0.00,,SKC,0.00,VWS V14.01,2013-11-04 02:10:00,
2013-11-03 20:11:00,62.1,48.5,30.07,ESE,122,0.0,0.0,61,0.00,,SKC,0.00,VWS V14.01,2013-11-04 02:11:00,
2013-11-03 20:16:00,62.1,48.5,30.06,ESE,122,0.0,0.0,61,0.00,,SKC,0.00,VWS V14.01,2013-11-04 02:16:00,
2013-11-03 20:20:00,62.1,48.5,30.06,ESE,122,0.0,0.0,61,0.00,,SKC,0.00,VWS V14.01,2013-11-04 02:20:00,
2013-11-03 20:21:00,62.1,48.9,30.06,ESE,122,0.0,0.0,62,0.00,,SKC,0.00,VWS V14.01,2013-11-04 02:21:00,
2013-11-03 20:26:00,62.0,48.8,30.06,ESE,122,0.0,0.0,62,0.00,,SKC,0.00,VWS V14.01,2013-11-04 02:26:00,
2013-11-03 20:30:00,62.0,48.8,30.06,ESE,122,0.0,0.0,62,0.00,,SKC,0.00,VWS V14.01,2013-11-04 02:30:00,
2013-11-03 20:31:00,62.1,48.9,30.06,ESE,122,0.0,0.0,62,0.00,,SKC,0.00,VWS V14.01,2013-11-04 02:31:00,
2013-11-03 20:36:00,62.1,49.4,30.06,ESE,122,0.0,0.0,63,0.00,,SKC,0.00,VWS V14.01,2013-11-04 02:36:00,
2013-11-03 20:40:00,62.1,49.4,30.06,ESE,122,0.0,0.0,63,0.00,,SKC,0.00,VWS V14.01,2013-11-04 02:40:00,
2013-11-03 20:41:00,62.1,49.8,30.06,ESE,122,0.0,0.0,64,0.00,,SKC,0.00,VWS V14.01,2013-11-04 02:41:00,
2013-11-03 20:46:00,62.0,50.1,30.06,ESE,122,0.0,0.0,65,0.00,,SKC,0.00,VWS V14.01,2013-11-04 02:46:00,
2013-11-03 20:50:00,62.0,49.7,30.06,ESE,122,0.0,0.0,64,0.00,,SKC,0.00,VWS V14.01,2013-11-04 02:50:00,
2013-11-03 20:51:00,62.0,50.5,30.06,ESE,122,0.0,0.0,66,0.00,,SKC,0.00,VWS V14.01,2013-11-04 02:51:00,
2013-11-03 20:56:00,61.9,50.4,30.06,ESE,122,0.0,0.0,66,0.00,,SKC,0.00,VWS V14.01,2013-11-04 02:56:00,
2013-11-03 21:00:00,62.0,50.5,30.06,ESE,122,0.0,0.0,66,0.00,,SKC,0.00,VWS V14.01,2013-11-04 03:00:00,
2013-11-03 21:01:00,61.8,50.7,30.06,ESE,122,0.0,0.0,67,0.00,,SKC,0.00,VWS V14.01,2013-11-04 03:01:00,
2013-11-03 21:06:00,61.8,51.1,30.06,ESE,122,0.0,0.0,68,0.00,,SKC,0.00,VWS V14.01,2013-11-04 03:06:00,
2013-11-03 21:10:00,61.8,51.1,30.06,ESE,122,0.0,0.0,68,0.00,,SKC,0.00,VWS V14.01,2013-11-04 03:10:00,
2013-11-03 21:11:00,61.7,51.4,30.06,ESE,122,0.0,0.0,69,0.00,,SKC,0.00,VWS V14.01,2013-11-04 03:11:00,
2013-11-03 21:16:00,61.5,51.6,30.05,ESE,122,0.0,0.0,70,0.00,,SKC,0.00,VWS V14.01,2013-11-04 03:16:00,
2013-11-03 21:20:00,61.6,51.7,30.06,ESE,122,0.0,2.0,70,0.00,,SKC,0.00,VWS V14.01,2013-11-04 03:20:00,
2013-11-03 21:21:00,61.4,51.9,30.05,ESE,122,0.0,0.0,71,0.00,,SKC,0.00,VWS V14.01,2013-11-04 03:21:00,
2013-11-03 21:26:00,61.3,52.2,30.05,ESE,122,0.0,2.0,72,0.00,,SKC,0.00,VWS V14.01,2013-11-04 03:26:00,
2013-11-03 21:30:00,61.3,52.2,30.05,ESE,122,0.0,0.0,72,0.00,,SKC,0.00,VWS V14.01,2013-11-04 03:30:00,
2013-11-03 21:31:00,61.3,52.6,30.05,ESE,122,0.0,2.0,73,0.00,,SKC,0.00,VWS V14.01,2013-11-04 03:31:00,
2013-11-03 21:36:00,61.3,53.0,30.05,ESE,122,0.0,2.0,74,0.00,,SKC,0.00,VWS V14.01,2013-11-04 03:36:00,
2013-11-03 21:40:00,61.3,53.0,30.05,ESE,122,0.0,2.0,74,0.00,,SKC,0.00,VWS V14.01,2013-11-04 03:40:00,
2013-11-03 21:41:00,61.3,53.0,30.05,ESE,122,1.0,4.0,74,0.00,,SKC,0.00,VWS V14.01,2013-11-04 03:41:00,
2013-11-03 21:46:00,61.4,53.0,30.05,ESE,121,0.0,0.0,74,0.00,,SKC,0.00,VWS V14.01,2013-11-04 03:46:00,
2013-11-03 21:50:00,61.4,53.0,30.05,ESE,122,0.0,4.0,74,0.00,,SKC,0.00,VWS V14.01,2013-11-04 03:50:00,
2013-11-03 21:51:00,61.5,53.5,30.04,ESE,121,0.0,3.0,75,0.00,,SKC,0.00,VWS V14.01,2013-11-04 03:51:00,
2013-11-03 21:56:00,61.6,53.6,30.04,ESE,121,0.0,0.0,75,0.00,,SKC,0.00,VWS V14.01,2013-11-04 03:56:00,
2013-11-03 22:00:00,61.6,53.6,30.04,ESE,121,0.0,3.0,75,0.00,,SKC,0.00,VWS V14.01,2013-11-04 04:00:00,
2013-11-03 22:01:00,61.6,53.6,30.04,ESE,122,0.0,0.0,75,0.00,,SKC,0.00,VWS V14.01,2013-11-04 04:01:00,
2013-11-03 22:06:00,61.6,53.6,30.03,SE,131,0.0,0.0,75,0.00,,SKC,0.00,VWS V14.01,2013-11-04 04:06:00,
2013-11-03 22:10:00,61.6,53.6,30.03,SE,131,0.0,0.0,75,0.00,,SKC,0.00,VWS V14.01,2013-11-04 04:10:00,
2013-11-03 22:11:00,61.6,54.0,30.04,SE,132,0.0,0.0,76,0.00,,SKC,0.00,VWS V14.01,2013-11-04 04:11:00,
2013-11-03 22:16:00,61.7,54.1,30.03,SE,134,0.0,0.0,76,0.00,,SKC,0.00,VWS V14.01,2013-11-04 04:16:00,
2013-11-03 22:20:00,61.7,54.1,30.04,SE,133,0.0,0.0,76,0.00,,SKC,0.00,VWS V14.01,2013-11-04 04:20:00,
2013-11-03 22:21:00,61.7,54.1,30.03,SE,131,0.0,0.0,76,0.00,,SKC,0.00,VWS V14.01,2013-11-04 04:21:00,
2013-11-03 22:26:00,61.7,54.1,30.03,SE,131,0.0,0.0,76,0.00,,SKC,0.00,VWS V14.01,2013-11-04 04:26:00,
2013-11-03 22:30:00,61.7,54.1,30.04,SE,131,0.0,0.0,76,0.00,,SKC,0.00,VWS V14.01,2013-11-04 04:30:00,
2013-11-03 22:31:00,61.7,54.4,30.03,SE,131,0.0,0.0,77,0.00,,SKC,0.00,VWS V14.01,2013-11-04 04:31:00,
2013-11-03 22:36:00,61.7,54.4,30.03,SE,144,0.0,0.0,77,0.00,,SKC,0.00,VWS V14.01,2013-11-04 04:36:00,
2013-11-03 22:40:00,61.7,54.4,30.03,SE,130,0.0,0.0,77,0.00,,SKC,0.00,VWS V14.01,2013-11-04 04:40:00,
2013-11-03 22:41:00,61.8,54.5,30.02,SE,143,0.0,0.0,77,0.00,,SKC,0.00,VWS V14.01,2013-11-04 04:41:00,
2013-11-03 22:46:00,61.9,54.6,30.03,SE,146,0.0,0.0,77,0.00,,SKC,0.00,VWS V14.01,2013-11-04 04:46:00,
2013-11-03 22:50:00,61.9,54.6,30.03,SE,146,0.0,0.0,77,0.00,,SKC,0.00,VWS V14.01,2013-11-04 04:50:00,
2013-11-03 22:51:00,61.9,54.6,30.03,SE,145,0.0,0.0,77,0.00,,SKC,0.00,VWS V14.01,2013-11-04 04:51:00,
2013-11-03 22:56:00,61.9,54.3,30.03,SE,145,0.0,0.0,76,0.00,,SKC,0.00,VWS V14.01,2013-11-04 04:56:00,
2013-11-03 23:00:00,62.0,54.4,30.03,SE,145,0.0,0.0,76,0.00,,SKC,0.00,VWS V14.01,2013-11-04 05:00:00,
2013-11-03 23:01:00,62.0,54.4,30.03,SE,145,0.0,0.0,76,0.00,,SKC,0.00,VWS V14.01,2013-11-04 05:01:00,
2013-11-03 23:02:00,62.0,54.4,30.03,SE,145,0.0,0.0,76,0.00,,SKC,0.00,VWS V14.01,2013-11-04 05:02:00,
2013-11-03 23:07:00,61.9,54.6,30.03,SE,145,0.0,0.0,77,0.00,,SKC,0.00,VWS V14.01,2013-11-04 05:07:00,
2013-11-03 23:10:00,61.9,54.6,30.03,SE,145,0.0,0.0,77,0.00,,SKC,0.00,VWS V14.01,2013-11-04 05:10:00,
2013-11-03 23:12:00,61.9,54.6,30.04,SE,144,0.0,0.0,77,0.00,,SKC,0.00,VWS V14.01,2013-11-04 05:12:00,
2013-11-03 23:17:00,61.9,54.6,30.04,SE,144,0.0,0.0,77,0.00,,SKC,0.00,VWS V14.01,2013-11-04 05:17:00,
2013-11-03 23:20:00,61.9,54.6,30.03,SE,144,0.0,0.0,77,0.00,,SKC,0.00,VWS V14.01,2013-11-04 05:20:00,
2013-11-03 23:22:00,62.0,54.7,30.04,SE,144,0.0,0.0,77,0.00,,SKC,0.00,VWS V14.01,2013-11-04 05:22:00,
2013-11-03 23:27:00,61.9,54.6,30.05,SE,144,0.0,0.0,77,0.00,,SKC,0.00,VWS V14.01,2013-11-04 05:27:00,
2013-11-03 23:30:00,61.9,54.6,30.04,SE,144,0.0,0.0,77,0.00,,SKC,0.00,VWS V14.01,2013-11-04 05:30:00,
2013-11-03 23:32:00,61.9,54.6,30.04,SE,144,0.0,0.0,77,0.00,,SKC,0.00,VWS V14.01,2013-11-04 05:32:00,
2013-11-03 23:37:00,61.9,54.6,30.04,SE,144,0.0,0.0,77,0.00,,SKC,0.00,VWS V14.01,2013-11-04 05:37:00,
2013-11-03 23:40:00,61.9,54.6,30.04,SE,144,0.0,0.0,77,0.00,,SKC,0.00,VWS V14.01,2013-11-04 05:40:00,
2013-11-03 23:42:00,61.8,54.5,30.04,SE,144,0.0,0.0,77,0.00,,SKC,0.00,VWS V14.01,2013-11-04 05:42:00,
2013-11-03 23:47:00,61.8,54.5,30.03,SE,144,0.0,0.0,77,0.00,,SKC,0.00,VWS V14.01,2013-11-04 05:47:00,
2013-11-03 23:50:00,61.8,54.5,30.04,SE,144,0.0,0.0,77,0.00,,SKC,0.00,VWS V14.01,2013-11-04 05:50:00,
2013-11-03 23:52:00,61.7,54.8,30.03,SE,144,0.0,0.0,78,0.00,,SKC,0.00,VWS V14.01,2013-11-04 05:52:00,
2013-11-03 23:57:00,61.6,54.7,30.03,SE,144,0.0,0.0,78,0.00,,SKC,0.00,VWS V14.01,2013-11-04 05:57:00,